sensor_id;sensor_type;location;lat;lon;timestamp;pressure;altitude;pressure_sealevel;temperature;humidity
11936;BME280;6027;48.576;9.180;2023-03-20T00:01:18;97085.41;;;8.73;100.00
11936;BME280;6027;48.576;9.180;2023-03-20T00:03:46;97085.75;;;8.70;100.00
11936;BME280;6027;48.576;9.180;2023-03-20T00:06:22;97089.88;;;8.73;100.00
11936;BME280;6027;48.576;9.180;2023-03-20T00:08:51;97085.75;;;8.54;100.00
11936;BME280;6027;48.576;9.180;2023-03-20T00:14:06;97087.38;;;8.55;100.00
11936;BME280;6027;48.576;9.180;2023-03-20T00:16:38;97091.69;;;8.56;100.00
11936;BME280;6027;48.576;9.180;2023-03-20T00:19:05;97093.66;;;8.54;100.00
11936;BME280;6027;48.576;9.180;2023-03-20T00:21:31;97091.34;;;8.43;100.00
11936;BME280;6027;48.576;9.180;2023-03-20T00:23:57;97095.47;;;8.37;100.00
11936;BME280;6027;48.576;9.180;2023-03-20T00:26:32;97087.72;;;8.36;100.00
11936;BME280;6027;48.576;9.180;2023-03-20T00:29:00;97093.66;;;8.38;100.00
11936;BME280;6027;48.576;9.180;2023-03-20T00:31:34;97091.03;;;8.46;100.00
11936;BME280;6027;48.576;9.180;2023-03-20T00:34:06;97090.84;;;8.39;100.00
11936;BME280;6027;48.576;9.180;2023-03-20T00:36:34;97085.06;;;8.36;100.00
11936;BME280;6027;48.576;9.180;2023-03-20T00:39:00;97090.53;;;8.42;100.00
11936;BME280;6027;48.576;9.180;2023-03-20T00:41:30;97098.19;;;8.27;100.00
11936;BME280;6027;48.576;9.180;2023-03-20T00:46:38;97104.81;;;8.31;100.00
11936;BME280;6027;48.576;9.180;2023-03-20T00:49:04;97106.47;;;8.24;100.00
11936;BME280;6027;48.576;9.180;2023-03-20T00:51:30;97109.97;;;8.33;100.00
11936;BME280;6027;48.576;9.180;2023-03-20T00:53:56;97109.25;;;8.31;100.00
11936;BME280;6027;48.576;9.180;2023-03-20T00:56:32;97100.84;;;8.27;100.00
11936;BME280;6027;48.576;9.180;2023-03-20T00:59:02;97108.75;;;8.27;100.00
11936;BME280;6027;48.576;9.180;2023-03-20T01:01:29;97104.97;;;8.30;100.00
11936;BME280;6027;48.576;9.180;2023-03-20T01:03:56;97099.91;;;8.37;100.00
11936;BME280;6027;48.576;9.180;2023-03-20T01:06:22;97088.81;;;8.25;100.00
11936;BME280;6027;48.576;9.180;2023-03-20T01:08:47;97103.31;;;8.29;100.00
11936;BME280;6027;48.576;9.180;2023-03-20T01:11:15;97103.84;;;8.32;100.00
11936;BME280;6027;48.576;9.180;2023-03-20T01:13:44;97106.69;;;8.39;100.00
11936;BME280;6027;48.576;9.180;2023-03-20T01:16:22;97107.50;;;8.48;100.00
11936;BME280;6027;48.576;9.180;2023-03-20T01:18:49;97101.91;;;8.59;100.00
11936;BME280;6027;48.576;9.180;2023-03-20T01:21:16;97109.19;;;8.65;100.00
11936;BME280;6027;48.576;9.180;2023-03-20T01:23:41;97105.53;;;8.74;100.00
11936;BME280;6027;48.576;9.180;2023-03-20T01:28:53;97103.41;;;8.61;100.00
11936;BME280;6027;48.576;9.180;2023-03-20T01:31:19;97110.47;;;8.69;100.00
11936;BME280;6027;48.576;9.180;2023-03-20T01:33:45;97100.25;;;8.74;100.00
11936;BME280;6027;48.576;9.180;2023-03-20T01:36:17;97097.44;;;8.68;100.00
11936;BME280;6027;48.576;9.180;2023-03-20T01:38:44;97107.53;;;8.72;100.00
11936;BME280;6027;48.576;9.180;2023-03-20T01:41:15;97101.91;;;8.59;100.00
11936;BME280;6027;48.576;9.180;2023-03-20T01:43:42;97106.03;;;8.61;100.00
11936;BME280;6027;48.576;9.180;2023-03-20T01:51:18;97096.63;;;8.59;100.00
11936;BME280;6027;48.576;9.180;2023-03-20T01:53:47;97100.78;;;8.61;100.00
11936;BME280;6027;48.576;9.180;2023-03-20T01:56:16;97111.31;;;8.70;100.00
11936;BME280;6027;48.576;9.180;2023-03-20T01:58:57;97102.41;;;8.71;100.00
11936;BME280;6027;48.576;9.180;2023-03-20T02:01:23;97114.13;;;8.68;100.00
11936;BME280;6027;48.576;9.180;2023-03-20T02:03:50;97107.69;;;8.62;100.00
11936;BME280;6027;48.576;9.180;2023-03-20T02:06:16;97117.59;;;8.60;100.00
11936;BME280;6027;48.576;9.180;2023-03-20T02:08:49;97112.13;;;8.54;100.00
11936;BME280;6027;48.576;9.180;2023-03-20T02:11:17;97110.47;;;8.53;100.00
11936;BME280;6027;48.576;9.180;2023-03-20T02:13:43;97121.88;;;8.45;100.00
11936;BME280;6027;48.576;9.180;2023-03-20T02:16:11;97118.72;;;8.42;100.00
11936;BME280;6027;48.576;9.180;2023-03-20T02:18:39;97119.38;;;8.36;100.00
11936;BME280;6027;48.576;9.180;2023-03-20T02:29:59;97122.88;;;8.10;100.00
11936;BME280;6027;48.576;9.180;2023-03-20T02:41:16;97121.53;;;7.98;100.00
11936;BME280;6027;48.576;9.180;2023-03-20T02:44:04;97121.44;;;8.08;100.00
11936;BME280;6027;48.576;9.180;2023-03-20T02:49:48;97130.13;;;8.08;100.00
11936;BME280;6027;48.576;9.180;2023-03-20T02:52:32;97125.22;;;8.13;100.00
11936;BME280;6027;48.576;9.180;2023-03-20T03:00:31;97119.25;;;8.11;100.00
11936;BME280;6027;48.576;9.180;2023-03-20T03:03:07;97126.19;;;8.12;100.00
11936;BME280;6027;48.576;9.180;2023-03-20T03:05:47;97115.66;;;8.12;100.00
11936;BME280;6027;48.576;9.180;2023-03-20T03:08:15;97126.19;;;8.12;100.00
11936;BME280;6027;48.576;9.180;2023-03-20T03:10:54;97123.22;;;8.07;100.00
11936;BME280;6027;48.576;9.180;2023-03-20T03:13:26;97131.81;;;8.17;100.00
11936;BME280;6027;48.576;9.180;2023-03-20T03:15:56;97128.16;;;8.10;100.00
11936;BME280;6027;48.576;9.180;2023-03-20T03:18:28;97128.66;;;8.06;100.00
11936;BME280;6027;48.576;9.180;2023-03-20T03:20:56;97123.88;;;8.09;100.00
11936;BME280;6027;48.576;9.180;2023-03-20T03:23:44;97121.91;;;8.11;100.00
11936;BME280;6027;48.576;9.180;2023-03-20T03:26:17;97128.66;;;8.06;100.00
11936;BME280;6027;48.576;9.180;2023-03-20T03:31:15;97141.03;;;8.05;100.00
11936;BME280;6027;48.576;9.180;2023-03-20T03:33:45;97142.69;;;8.14;100.00
11936;BME280;6027;48.576;9.180;2023-03-20T03:36:14;97139.53;;;8.11;100.00
11936;BME280;6027;48.576;9.180;2023-03-20T03:41:21;97145.69;;;8.19;100.00
11936;BME280;6027;48.576;9.180;2023-03-20T03:44:10;97140.69;;;8.08;100.00
11936;BME280;6027;48.576;9.180;2023-03-20T03:46:48;97141.03;;;8.05;100.00
11936;BME280;6027;48.576;9.180;2023-03-20T03:49:21;97146.63;;;8.10;100.00
11936;BME280;6027;48.576;9.180;2023-03-20T03:51:53;97155.19;;;8.12;100.00
11936;BME280;6027;48.576;9.180;2023-03-20T03:54:34;97151.56;;;8.05;100.00
11936;BME280;6027;48.576;9.180;2023-03-20T03:57:02;97159.28;;;7.98;100.00
11936;BME280;6027;48.576;9.180;2023-03-20T03:59:36;97156.13;;;7.95;100.00
11936;BME280;6027;48.576;9.180;2023-03-20T04:02:05;97160.72;;;7.93;100.00
11936;BME280;6027;48.576;9.180;2023-03-20T04:04:35;97159.09;;;7.92;100.00
11936;BME280;6027;48.576;9.180;2023-03-20T04:07:01;97163.72;;;7.98;100.00
11936;BME280;6027;48.576;9.180;2023-03-20T04:09:26;97159.44;;;7.97;100.00
11936;BME280;6027;48.576;9.180;2023-03-20T04:11:53;97162.38;;;7.94;100.00
11936;BME280;6027;48.576;9.180;2023-03-20T04:14:18;97166.69;;;7.95;100.00
11936;BME280;6027;48.576;9.180;2023-03-20T04:16:45;97157.84;;;8.04;100.00
11936;BME280;6027;48.576;9.180;2023-03-20T04:19:11;97172.63;;;7.97;100.00
11936;BME280;6027;48.576;9.180;2023-03-20T04:21:37;97171.59;;;7.90;100.00
11936;BME280;6027;48.576;9.180;2023-03-20T04:24:03;97172.41;;;7.90;100.00
11936;BME280;6027;48.576;9.180;2023-03-20T04:26:28;97168.81;;;7.91;100.00
11936;BME280;6027;48.576;9.180;2023-03-20T04:28:54;97168.66;;;7.93;100.00
11936;BME280;6027;48.576;9.180;2023-03-20T04:31:19;97174.22;;;7.90;100.00
11936;BME280;6027;48.576;9.180;2023-03-20T04:33:45;97175.22;;;7.89;100.00
11936;BME280;6027;48.576;9.180;2023-03-20T04:36:11;97165.03;;;7.94;100.00
11936;BME280;6027;48.576;9.180;2023-03-20T04:38:36;97164.19;;;7.93;100.00
11936;BME280;6027;48.576;9.180;2023-03-20T04:41:02;97170.59;;;7.91;100.00
11936;BME280;6027;48.576;9.180;2023-03-20T04:43:28;97159.72;;;7.86;100.00
11936;BME280;6027;48.576;9.180;2023-03-20T04:45:53;97149.19;;;7.86;100.00
11936;BME280;6027;48.576;9.180;2023-03-20T04:48:19;97147.41;;;7.94;100.00
11936;BME280;6027;48.576;9.180;2023-03-20T04:50:45;97147.41;;;7.94;100.00
11936;BME280;6027;48.576;9.180;2023-03-20T04:53:13;97141.81;;;7.97;100.00
11936;BME280;6027;48.576;9.180;2023-03-20T04:55:39;97143.56;;;7.89;100.00
11936;BME280;6027;48.576;9.180;2023-03-20T04:58:04;97145.56;;;7.87;100.00
11936;BME280;6027;48.576;9.180;2023-03-20T05:00:29;97148.47;;;7.76;100.00
11936;BME280;6027;48.576;9.180;2023-03-20T05:02:55;97148.84;;;7.81;100.00
11936;BME280;6027;48.576;9.180;2023-03-20T05:05:20;97158.59;;;7.88;100.00
11936;BME280;6027;48.576;9.180;2023-03-20T05:07:48;97154.31;;;7.95;100.00
11936;BME280;6027;48.576;9.180;2023-03-20T05:10:13;97155.78;;;7.90;100.00
11936;BME280;6027;48.576;9.180;2023-03-20T05:12:39;97163.06;;;7.96;100.00
11936;BME280;6027;48.576;9.180;2023-03-20T05:15:05;97176.25;;;7.96;100.00
11936;BME280;6027;48.576;9.180;2023-03-20T05:17:31;97174.88;;;7.84;100.00
11936;BME280;6027;48.576;9.180;2023-03-20T05:19:56;97171.09;;;7.86;100.00
11936;BME280;6027;48.576;9.180;2023-03-20T05:22:22;97178.03;;;7.87;100.00
11936;BME280;6027;48.576;9.180;2023-03-20T05:24:47;97178.72;;;7.97;100.00
11936;BME280;6027;48.576;9.180;2023-03-20T05:27:12;97190.41;;;7.95;100.00
11936;BME280;6027;48.576;9.180;2023-03-20T05:29:38;97191.84;;;7.89;100.00
11936;BME280;6027;48.576;9.180;2023-03-20T05:32:04;97191.75;;;7.99;100.00
11936;BME280;6027;48.576;9.180;2023-03-20T05:34:29;97192.06;;;7.96;100.00
11936;BME280;6027;48.576;9.180;2023-03-20T05:36:55;97195.38;;;7.98;100.00
11936;BME280;6027;48.576;9.180;2023-03-20T05:39:20;97194.03;;;7.94;100.00
11936;BME280;6027;48.576;9.180;2023-03-20T05:41:46;97188.06;;;7.92;100.00
11936;BME280;6027;48.576;9.180;2023-03-20T05:44:12;97187.75;;;7.87;100.00
11936;BME280;6027;48.576;9.180;2023-03-20T05:46:37;97188.25;;;7.90;100.00
11936;BME280;6027;48.576;9.180;2023-03-20T05:49:03;97178.25;;;8.02;100.00
11936;BME280;6027;48.576;9.180;2023-03-20T05:51:28;97177.44;;;8.10;100.00
11936;BME280;6027;48.576;9.180;2023-03-20T05:53:54;97181.63;;;8.28;100.00
11936;BME280;6027;48.576;9.180;2023-03-20T05:56:19;97196.31;;;8.23;100.00
11936;BME280;6027;48.576;9.180;2023-03-20T05:58:45;97194.81;;;8.20;100.00
11936;BME280;6027;48.576;9.180;2023-03-20T06:01:10;97192.94;;;8.13;100.00
11936;BME280;6027;48.576;9.180;2023-03-20T06:03:36;97197.41;;;8.12;100.00
11936;BME280;6027;48.576;9.180;2023-03-20T06:06:02;97203.63;;;8.03;100.00
11936;BME280;6027;48.576;9.180;2023-03-20T06:08:28;97209.22;;;8.00;100.00
11936;BME280;6027;48.576;9.180;2023-03-20T06:10:54;97207.84;;;7.88;100.00
11936;BME280;6027;48.576;9.180;2023-03-20T06:13:20;97215.75;;;7.88;100.00
11936;BME280;6027;48.576;9.180;2023-03-20T06:15:46;97208.84;;;7.87;100.00
11936;BME280;6027;48.576;9.180;2023-03-20T06:18:11;97214.59;;;7.90;100.00
11936;BME280;6027;48.576;9.180;2023-03-20T06:20:36;97211.25;;;7.80;100.00
11936;BME280;6027;48.576;9.180;2023-03-20T06:23:02;97220.84;;;7.89;100.00
11936;BME280;6027;48.576;9.180;2023-03-20T06:25:27;97217.56;;;7.87;100.00
11936;BME280;6027;48.576;9.180;2023-03-20T06:27:53;97218.56;;;7.86;100.00
11936;BME280;6027;48.576;9.180;2023-03-20T06:30:18;97220.38;;;7.86;100.00
11936;BME280;6027;48.576;9.180;2023-03-20T06:32:44;97220.06;;;7.97;100.00
11936;BME280;6027;48.576;9.180;2023-03-20T06:35:11;97217.59;;;7.95;100.00
11936;BME280;6027;48.576;9.180;2023-03-20T06:37:37;97221.63;;;8.08;100.00
11936;BME280;6027;48.576;9.180;2023-03-20T06:40:04;97225.44;;;8.13;100.00
11936;BME280;6027;48.576;9.180;2023-03-20T06:42:30;97216.84;;;8.11;100.00
11936;BME280;6027;48.576;9.180;2023-03-20T06:44:55;97218.19;;;8.15;100.00
11936;BME280;6027;48.576;9.180;2023-03-20T06:47:21;97219.69;;;8.18;100.00
11936;BME280;6027;48.576;9.180;2023-03-20T06:49:47;97217.19;;;8.16;100.00
11936;BME280;6027;48.576;9.180;2023-03-20T06:52:18;97210.28;;;8.15;100.00
11936;BME280;6027;48.576;9.180;2023-03-20T06:54:45;97207.19;;;8.28;100.00
11936;BME280;6027;48.576;9.180;2023-03-20T06:57:12;97207.53;;;8.25;100.00
11936;BME280;6027;48.576;9.180;2023-03-20T06:59:37;97211.03;;;8.34;100.00
11936;BME280;6027;48.576;9.180;2023-03-20T07:02:03;97216.50;;;8.40;100.00
11936;BME280;6027;48.576;9.180;2023-03-20T07:06:57;97221.31;;;8.53;100.00
11936;BME280;6027;48.576;9.180;2023-03-20T07:09:23;97210.09;;;8.51;100.00
11936;BME280;6027;48.576;9.180;2023-03-20T07:11:49;97213.41;;;8.53;100.00
11936;BME280;6027;48.576;9.180;2023-03-20T07:14:14;97220.03;;;8.65;100.00
11936;BME280;6027;48.576;9.180;2023-03-20T07:16:40;97206.84;;;8.65;100.00
11936;BME280;6027;48.576;9.180;2023-03-20T07:19:05;97224.19;;;8.76;100.00
11936;BME280;6027;48.576;9.180;2023-03-20T07:21:31;97229.66;;;8.82;100.00
11936;BME280;6027;48.576;9.180;2023-03-20T07:23:57;97232.44;;;8.81;100.00
11936;BME280;6027;48.576;9.180;2023-03-20T07:26:22;97234.75;;;8.92;100.00
11936;BME280;6027;48.576;9.180;2023-03-20T07:28:48;97236.91;;;8.88;100.00
11936;BME280;6027;48.576;9.180;2023-03-20T07:31:18;97237.44;;;9.00;100.00
11936;BME280;6027;48.576;9.180;2023-03-20T07:33:44;97241.72;;;9.01;100.00
11936;BME280;6027;48.576;9.180;2023-03-20T07:36:10;97243.38;;;9.02;100.00
11936;BME280;6027;48.576;9.180;2023-03-20T07:38:35;97242.88;;;8.98;100.00
11936;BME280;6027;48.576;9.180;2023-03-20T07:41:01;97261.19;;;9.00;100.00
11936;BME280;6027;48.576;9.180;2023-03-20T07:43:26;97254.09;;;9.00;100.00
11936;BME280;6027;48.576;9.180;2023-03-20T07:45:52;97253.41;;;9.07;100.00
11936;BME280;6027;48.576;9.180;2023-03-20T07:48:17;97249.31;;;9.04;100.00
11936;BME280;6027;48.576;9.180;2023-03-20T07:50:43;97236.25;;;9.11;100.00
11936;BME280;6027;48.576;9.180;2023-03-20T07:53:08;97241.22;;;8.97;100.00
11936;BME280;6027;48.576;9.180;2023-03-20T07:55:34;97241.88;;;9.08;100.00
11936;BME280;6027;48.576;9.180;2023-03-20T07:57:59;97243.88;;;9.14;100.00
11936;BME280;6027;48.576;9.180;2023-03-20T08:00:25;97241.72;;;9.17;100.00
11936;BME280;6027;48.576;9.180;2023-03-20T08:02:50;97240.72;;;9.26;100.00
11936;BME280;6027;48.576;9.180;2023-03-20T08:05:15;97242.88;;;9.31;100.00
11936;BME280;6027;48.576;9.180;2023-03-20T08:07:41;97239.59;;;9.21;100.00
11936;BME280;6027;48.576;9.180;2023-03-20T08:10:07;97248.81;;;9.25;100.00
11936;BME280;6027;48.576;9.180;2023-03-20T08:12:32;97240.25;;;9.23;100.00
11936;BME280;6027;48.576;9.180;2023-03-20T08:14:58;97236.25;;;9.27;100.00
11936;BME280;6027;48.576;9.180;2023-03-20T08:17:23;97241.41;;;9.37;100.00
11936;BME280;6027;48.576;9.180;2023-03-20T08:19:49;97245.53;;;9.39;100.00
11936;BME280;6027;48.576;9.180;2023-03-20T08:22:15;97231.00;;;9.35;100.00
11936;BME280;6027;48.576;9.180;2023-03-20T08:24:40;97240.91;;;9.41;100.00
11936;BME280;6027;48.576;9.180;2023-03-20T08:27:06;97243.53;;;9.49;100.00
11936;BME280;6027;48.576;9.180;2023-03-20T08:29:31;97244.03;;;9.45;100.00
11936;BME280;6027;48.576;9.180;2023-03-20T08:31:57;97246.19;;;9.49;100.00
11936;BME280;6027;48.576;9.180;2023-03-20T08:34:23;97245.22;;;9.42;100.00
11936;BME280;6027;48.576;9.180;2023-03-20T08:36:48;97246.19;;;9.41;100.00
11936;BME280;6027;48.576;9.180;2023-03-20T08:39:14;97254.13;;;9.41;100.00
11936;BME280;6027;48.576;9.180;2023-03-20T08:41:39;97251.16;;;9.36;100.00
11936;BME280;6027;48.576;9.180;2023-03-20T08:44:08;97245.84;;;9.44;100.00
11936;BME280;6027;48.576;9.180;2023-03-20T08:46:33;97256.25;;;9.46;100.00
11936;BME280;6027;48.576;9.180;2023-03-20T08:48:59;97248.00;;;9.41;100.00
11936;BME280;6027;48.576;9.180;2023-03-20T08:51:25;97228.19;;;9.37;100.00
11936;BME280;6027;48.576;9.180;2023-03-20T08:53:51;97246.66;;;9.45;100.00
11936;BME280;6027;48.576;9.180;2023-03-20T08:56:17;97259.38;;;9.49;100.00
11936;BME280;6027;48.576;9.180;2023-03-20T08:58:42;97258.75;;;9.55;100.00
11936;BME280;6027;48.576;9.180;2023-03-20T09:01:08;97257.88;;;9.63;100.00
11936;BME280;6027;48.576;9.180;2023-03-20T09:03:40;97256.91;;;9.72;100.00
11936;BME280;6027;48.576;9.180;2023-03-20T09:06:07;97253.44;;;9.72;100.00
11936;BME280;6027;48.576;9.180;2023-03-20T09:08:34;97251.75;;;9.87;100.00
11936;BME280;6027;48.576;9.180;2023-03-20T09:10:59;97256.19;;;9.94;100.00
11936;BME280;6027;48.576;9.180;2023-03-20T09:13:26;97253.34;;;10.04;100.00
11936;BME280;6027;48.576;9.180;2023-03-20T09:15:52;97249.72;;;10.13;100.00
11936;BME280;6027;48.576;9.180;2023-03-20T09:18:18;97249.03;;;10.11;100.00
11936;BME280;6027;48.576;9.180;2023-03-20T09:20:45;97249.88;;;10.20;100.00
11936;BME280;6027;48.576;9.180;2023-03-20T09:23:11;97243.91;;;10.26;100.00
11936;BME280;6027;48.576;9.180;2023-03-20T09:25:36;97259.59;;;10.27;100.00
11936;BME280;6027;48.576;9.180;2023-03-20T09:28:02;97257.13;;;10.18;99.81
11936;BME280;6027;48.576;9.180;2023-03-20T09:30:27;97266.91;;;10.17;97.25
11936;BME280;6027;48.576;9.180;2023-03-20T09:32:52;97264.75;;;10.21;96.44
11936;BME280;6027;48.576;9.180;2023-03-20T09:35:18;97265.88;;;10.34;99.49
11936;BME280;6027;48.576;9.180;2023-03-20T09:37:43;97270.19;;;10.35;98.81
11936;BME280;6027;48.576;9.180;2023-03-20T09:40:30;97263.66;;;10.46;98.77
11936;BME280;6027;48.576;9.180;2023-03-20T09:43:09;97261.13;;;10.61;96.26
11936;BME280;6027;48.576;9.180;2023-03-20T09:45:54;97264.38;;;10.71;100.00
11936;BME280;6027;48.576;9.180;2023-03-20T09:51:23;97251.75;;;10.81;89.58
11936;BME280;6027;48.576;9.180;2023-03-20T09:53:54;97255.22;;;10.82;90.68
11936;BME280;6027;48.576;9.180;2023-03-20T09:56:27;97256.38;;;10.79;89.73
11936;BME280;6027;48.576;9.180;2023-03-20T09:58:55;97252.56;;;10.82;90.67
11936;BME280;6027;48.576;9.180;2023-03-20T10:01:25;97253.53;;;10.89;88.53
11936;BME280;6027;48.576;9.180;2023-03-20T10:03:55;97256.00;;;10.90;88.48
11936;BME280;6027;48.576;9.180;2023-03-20T10:06:21;97256.34;;;10.87;87.67
11936;BME280;6027;48.576;9.180;2023-03-20T10:08:47;97255.34;;;10.88;88.95
11936;BME280;6027;48.576;9.180;2023-03-20T10:12:02;97261.91;;;10.69;88.60
11936;BME280;6027;48.576;9.180;2023-03-20T10:19:30;97264.59;;;10.61;91.33
11936;BME280;6027;48.576;9.180;2023-03-20T10:22:21;97265.47;;;10.54;88.61
11936;BME280;6027;48.576;9.180;2023-03-20T10:25:22;97265.81;;;10.43;89.98
11936;BME280;6027;48.576;9.180;2023-03-20T10:27:54;97267.66;;;10.42;90.88
11936;BME280;6027;48.576;9.180;2023-03-20T10:38:28;97273.91;;;10.57;91.39
11936;BME280;6027;48.576;9.180;2023-03-20T10:43:29;97275.81;;;10.71;88.83
11936;BME280;6027;48.576;9.180;2023-03-20T10:46:04;97278.78;;;10.68;86.85
11936;BME280;6027;48.576;9.180;2023-03-20T10:51:04;97270.84;;;10.68;89.88
11936;BME280;6027;48.576;9.180;2023-03-20T10:56:04;97268.03;;;10.70;88.03
11936;BME280;6027;48.576;9.180;2023-03-20T10:58:34;97264.72;;;10.68;84.05
11936;BME280;6027;48.576;9.180;2023-03-20T11:01:01;97255.97;;;10.67;85.87
11936;BME280;6027;48.576;9.180;2023-03-20T11:03:29;97256.03;;;10.82;86.79
11936;BME280;6027;48.576;9.180;2023-03-20T11:08:30;97254.44;;;11.27;82.95
11936;BME280;6027;48.576;9.180;2023-03-20T11:11:00;97249.59;;;11.53;84.62
11936;BME280;6027;48.576;9.180;2023-03-20T11:13:34;97251.63;;;11.66;77.23
11936;BME280;6027;48.576;9.180;2023-03-20T11:18:33;97248.84;;;11.59;75.83
11936;BME280;6027;48.576;9.180;2023-03-20T11:21:00;97250.69;;;11.59;73.66
11936;BME280;6027;48.576;9.180;2023-03-20T11:23:36;97248.03;;;11.59;74.26
11936;BME280;6027;48.576;9.180;2023-03-20T11:26:04;97244.91;;;11.55;72.33
11936;BME280;6027;48.576;9.180;2023-03-20T11:28:41;97245.50;;;11.65;74.24
11936;BME280;6027;48.576;9.180;2023-03-20T11:31:23;97242.84;;;11.65;70.89
11936;BME280;6027;48.576;9.180;2023-03-20T11:36:58;97240.66;;;11.69;70.79
11936;BME280;6027;48.576;9.180;2023-03-20T11:39:29;97237.28;;;11.75;69.78
11936;BME280;6027;48.576;9.180;2023-03-20T11:41:59;97237.28;;;11.75;67.99
11936;BME280;6027;48.576;9.180;2023-03-20T11:44:33;97237.00;;;11.70;69.85
11936;BME280;6027;48.576;9.180;2023-03-20T11:49:28;97243.31;;;11.69;69.56
11936;BME280;6027;48.576;9.180;2023-03-20T11:51:58;97239.78;;;11.76;69.64
11936;BME280;6027;48.576;9.180;2023-03-20T11:54:25;97236.28;;;11.76;71.28
11936;BME280;6027;48.576;9.180;2023-03-20T11:59:19;97229.81;;;11.79;70.22
11936;BME280;6027;48.576;9.180;2023-03-20T12:01:48;97219.41;;;12.06;70.99
11936;BME280;6027;48.576;9.180;2023-03-20T12:04:35;97227.91;;;12.17;72.54
11936;BME280;6027;48.576;9.180;2023-03-20T12:07:18;97226.09;;;12.17;70.09
11936;BME280;6027;48.576;9.180;2023-03-20T12:09:57;97228.72;;;12.17;69.56
11936;BME280;6027;48.576;9.180;2023-03-20T12:25:53;97208.59;;;11.79;69.79
11936;BME280;6027;48.576;9.180;2023-03-20T12:28:26;97208.34;;;11.88;70.60
11936;BME280;6027;48.576;9.180;2023-03-20T12:31:22;97207.16;;;11.91;68.52
11936;BME280;6027;48.576;9.180;2023-03-20T12:34:23;97198.44;;;11.97;69.89
11936;BME280;6027;48.576;9.180;2023-03-20T12:36:53;97203.28;;;11.93;69.13
11936;BME280;6027;48.576;9.180;2023-03-20T12:39:26;97195.72;;;11.90;68.91
11936;BME280;6027;48.576;9.180;2023-03-20T12:42:20;97186.94;;;11.90;69.98
11936;BME280;6027;48.576;9.180;2023-03-20T12:44:58;97194.72;;;11.91;70.80
11936;BME280;6027;48.576;9.180;2023-03-20T12:47:42;97192.06;;;11.91;71.21
11936;BME280;6027;48.576;9.180;2023-03-20T12:50:34;97203.22;;;11.87;69.15
11936;BME280;6027;48.576;9.180;2023-03-20T12:58:46;97192.38;;;11.73;70.04
11936;BME280;6027;48.576;9.180;2023-03-20T13:01:28;97193.31;;;11.81;71.58
11936;BME280;6027;48.576;9.180;2023-03-20T13:07:13;97174.31;;;11.92;72.64
11936;BME280;6027;48.576;9.180;2023-03-20T13:10:00;97177.78;;;12.07;69.68
11936;BME280;6027;48.576;9.180;2023-03-20T13:20:54;97169.00;;;12.06;66.02
11936;BME280;6027;48.576;9.180;2023-03-20T13:23:26;97164.69;;;12.05;67.67
11936;BME280;6027;48.576;9.180;2023-03-20T13:26:10;97171.19;;;12.03;66.40
11936;BME280;6027;48.576;9.180;2023-03-20T13:36:47;97160.66;;;11.80;68.54
11936;BME280;6027;48.576;9.180;2023-03-20T13:39:32;97158.09;;;11.72;68.78
11936;BME280;6027;48.576;9.180;2023-03-20T13:42:00;97157.78;;;11.67;68.72
11936;BME280;6027;48.576;9.180;2023-03-20T13:44:29;97152.66;;;11.65;69.97
11936;BME280;6027;48.576;9.180;2023-03-20T13:47:18;97154.06;;;11.76;68.63
11936;BME280;6027;48.576;9.180;2023-03-20T13:55:43;97134.47;;;12.21;68.74
11936;BME280;6027;48.576;9.180;2023-03-20T14:03:39;97141.28;;;12.45;67.11
11936;BME280;6027;48.576;9.180;2023-03-20T14:11:52;97122.34;;;12.69;65.13
11936;BME280;6027;48.576;9.180;2023-03-20T14:14:30;97128.53;;;12.76;63.50
11936;BME280;6027;48.576;9.180;2023-03-20T14:19:35;97130.53;;;12.74;62.28
11936;BME280;6027;48.576;9.180;2023-03-20T14:22:02;97125.69;;;12.78;62.81
11936;BME280;6027;48.576;9.180;2023-03-20T14:24:28;97133.66;;;12.78;64.29
11936;BME280;6027;48.576;9.180;2023-03-20T14:26:56;97137.44;;;12.90;64.10
11936;BME280;6027;48.576;9.180;2023-03-20T14:32:21;97140.53;;;12.72;61.55
11936;BME280;6027;48.576;9.180;2023-03-20T14:38:19;97134.63;;;12.56;62.12
11936;BME280;6027;48.576;9.180;2023-03-20T14:43:47;97134.06;;;12.39;63.53
11936;BME280;6027;48.576;9.180;2023-03-20T14:46:47;97134.41;;;12.36;61.35
11936;BME280;6027;48.576;9.180;2023-03-20T14:49:24;97125.16;;;12.47;61.32
11936;BME280;6027;48.576;9.180;2023-03-20T14:51:59;97124.53;;;12.44;63.42
11936;BME280;6027;48.576;9.180;2023-03-20T14:54:34;97123.16;;;12.34;62.01
11936;BME280;6027;48.576;9.180;2023-03-20T14:57:09;97128.41;;;12.27;62.16
11936;BME280;6027;48.576;9.180;2023-03-20T14:59:35;97125.41;;;12.30;63.29
11936;BME280;6027;48.576;9.180;2023-03-20T15:02:01;97124.66;;;12.22;63.28
11936;BME280;6027;48.576;9.180;2023-03-20T15:04:39;97128.22;;;12.29;62.37
11936;BME280;6027;48.576;9.180;2023-03-20T15:07:20;97119.16;;;12.23;63.00
11936;BME280;6027;48.576;9.180;2023-03-20T15:09:50;97126.50;;;12.21;62.26
11936;BME280;6027;48.576;9.180;2023-03-20T15:12:25;97119.03;;;12.10;63.00
11936;BME280;6027;48.576;9.180;2023-03-20T15:17:20;97125.41;;;12.16;63.33
11936;BME280;6027;48.576;9.180;2023-03-20T15:19:46;97122.31;;;12.12;66.02
11936;BME280;6027;48.576;9.180;2023-03-20T15:22:17;97124.97;;;12.12;64.13
11936;BME280;6027;48.576;9.180;2023-03-20T15:24:55;97120.66;;;12.11;65.28
11936;BME280;6027;48.576;9.180;2023-03-20T15:27:23;97119.28;;;12.00;64.89
11936;BME280;6027;48.576;9.180;2023-03-20T15:29:53;97130.22;;;11.91;64.25
11936;BME280;6027;48.576;9.180;2023-03-20T15:32:20;97111.81;;;11.89;64.62
11936;BME280;6027;48.576;9.180;2023-03-20T15:34:46;97123.69;;;11.93;64.46
11936;BME280;6027;48.576;9.180;2023-03-20T15:37:20;97118.94;;;11.89;65.52
11936;BME280;6027;48.576;9.180;2023-03-20T15:39:49;97119.19;;;11.94;65.55
11936;BME280;6027;48.576;9.180;2023-03-20T15:42:18;97112.63;;;11.90;65.22
11936;BME280;6027;48.576;9.180;2023-03-20T15:44:46;97119.69;;;11.83;65.20
11936;BME280;6027;48.576;9.180;2023-03-20T15:47:17;97116.94;;;11.91;66.53
11936;BME280;6027;48.576;9.180;2023-03-20T15:49:57;97119.69;;;11.83;67.56
11936;BME280;6027;48.576;9.180;2023-03-20T15:55:05;97131.00;;;11.76;68.35
11936;BME280;6027;48.576;9.180;2023-03-20T15:57:35;97126.69;;;11.75;68.02
11936;BME280;6027;48.576;9.180;2023-03-20T16:00:04;97127.91;;;11.73;67.83